Time;durP1;ratioP1;P1;durP2;ratioP2;P2;SDS_P1;SDS_P2;PMS_P1;PMS_P2;Temp;Humidity;BMP_temperature;BMP_pressure;BME280_temperature;BME280_humidity;BME280_pressure;Samples;Min_cycle;Max_cycle;Signal;HPM_P1;HPM_P2
2021/03/26 00:01:51;;;;;;;6.33;1.57;;;22.20;99.90;;;;;;5073114;28;20207;-72
2021/03/26 00:04:19;;;;;;;11.20;1.77;;;22.30;99.90;;;;;;5072362;28;20183;-72
2021/03/26 00:06:49;;;;;;;3.63;1.50;;;22.60;99.90;;;;;;5068916;28;20589;-71
2021/03/26 00:09:25;;;;;;;5.03;1.87;;;22.80;99.90;;;;;;5071108;28;20187;-71
2021/03/26 00:11:55;;;;;;;12.50;1.53;;;22.70;99.90;;;;;;5072231;28;20194;-72
2021/03/26 00:14:22;;;;;;;8.00;1.23;;;22.50;99.90;;;;;;5071403;28;20172;-69
2021/03/26 00:16:50;;;;;;;5.13;1.67;;;22.40;99.90;;;;;;5073645;28;20542;-68
2021/03/26 00:19:18;;;;;;;7.60;1.70;;;22.30;99.90;;;;;;5068571;28;20211;-69
2021/03/26 00:21:46;;;;;;;6.50;1.37;;;22.30;99.90;;;;;;5067699;28;20195;-72
2021/03/26 00:24:13;;;;;;;8.30;2.23;;;22.30;99.90;;;;;;5071479;28;20277;-71
2021/03/26 00:26:41;;;;;;;6.43;1.27;;;22.40;99.90;;;;;;5073862;28;20199;-69
2021/03/26 00:29:11;;;;;;;4.50;1.67;;;22.20;99.90;;;;;;5071475;28;20700;-72
2021/03/26 00:31:42;;;;;;;9.70;1.70;;;22.20;99.90;;;;;;5073134;28;20191;-71
2021/03/26 00:34:10;;;;;;;7.53;1.70;;;22.20;99.90;;;;;;5073897;28;20171;-71
2021/03/26 00:36:38;;;;;;;5.00;1.50;;;22.20;99.90;;;;;;5073534;28;20652;-72
2021/03/26 00:39:08;;;;;;;6.17;1.97;;;22.30;99.90;;;;;;5074030;28;20646;-71
2021/03/26 00:41:36;;;;;;;11.37;1.97;;;22.70;99.90;;;;;;5074233;28;20179;-68
2021/03/26 00:44:05;;;;;;;7.20;1.20;;;22.40;99.90;;;;;;5074024;28;20214;-71
2021/03/26 00:46:35;;;;;;;5.67;1.70;;;22.70;99.90;;;;;;5073659;28;20202;-68
2021/03/26 00:49:02;;;;;;;4.33;1.47;;;22.80;99.90;;;;;;5073027;28;20622;-71
2021/03/26 00:51:30;;;;;;;6.83;1.60;;;23.00;99.50;;;;;;5070870;28;20177;-68
2021/03/26 00:53:57;;;;;;;10.13;1.63;;;23.40;99.20;;;;;;5071587;28;20187;-68
2021/03/26 00:56:25;;;;;;;6.60;2.10;;;23.90;98.80;;;;;;5073827;28;20175;-67
2021/03/26 00:58:52;;;;;;;9.80;2.03;;;24.20;98.20;;;;;;5073639;28;20207;-68
2021/03/26 01:01:20;;;;;;;7.07;1.80;;;24.40;98.20;;;;;;5073520;28;20164;-70
2021/03/26 01:03:47;;;;;;;4.23;1.60;;;24.70;97.50;;;;;;5073628;28;20641;-72
2021/03/26 01:06:16;;;;;;;4.57;1.60;;;24.80;98.00;;;;;;5072868;28;20175;-71
2021/03/26 01:08:44;;;;;;;11.33;1.67;;;25.00;97.60;;;;;;5073018;28;20689;-71
2021/03/26 01:11:17;;;;;;;7.50;1.60;;;24.70;98.10;;;;;;5073288;28;20218;-69
2021/03/26 01:13:45;;;;;;;11.80;1.97;;;24.50;97.70;;;;;;5068244;28;20242;-70
2021/03/26 01:16:15;;;;;;;7.37;2.13;;;24.30;98.40;;;;;;5070040;28;20190;-68
2021/03/26 01:18:43;;;;;;;9.47;1.73;;;24.10;98.00;;;;;;5070786;28;20207;-69
2021/03/26 01:21:16;;;;;;;7.70;2.17;;;23.90;98.50;;;;;;5064136;28;20168;-69
2021/03/26 01:23:44;;;;;;;9.67;2.17;;;24.10;99.00;;;;;;5053015;28;20524;-70
2021/03/26 01:26:12;;;;;;;7.67;1.90;;;24.00;99.00;;;;;;5070421;28;20178;-71
2021/03/26 01:28:40;;;;;;;8.57;1.40;;;23.90;99.40;;;;;;5079209;28;20246;-68
2021/03/26 01:31:07;;;;;;;7.60;2.10;;;23.60;99.90;;;;;;5074057;28;20190;-71
2021/03/26 01:33:34;;;;;;;9.00;1.60;;;23.60;99.90;;;;;;5071657;28;20218;-70
2021/03/26 01:36:02;;;;;;;13.77;1.83;;;23.50;99.90;;;;;;5053024;28;20271;-71
2021/03/26 01:38:29;;;;;;;10.33;2.57;;;23.40;99.90;;;;;;5060950;28;20691;-70
2021/03/26 01:41:02;;;;;;;11.57;2.10;;;23.60;99.80;;;;;;5072979;28;20178;-70
2021/03/26 01:43:32;;;;;;;11.37;1.70;;;24.00;99.50;;;;;;5072487;28;20182;-71
2021/03/26 01:46:00;;;;;;;14.47;1.80;;;24.60;98.00;;;;;;5073015;28;20258;-70
2021/03/26 01:48:44;;;;;;;6.73;1.83;;;24.90;98.10;;;;;;5072482;28;20490;-71
2021/03/26 01:51:16;;;;;;;6.07;1.97;;;25.10;96.80;;;;;;5067579;28;20189;-68
2021/03/26 01:53:45;;;;;;;6.87;1.90;;;25.00;97.00;;;;;;5064857;28;20267;-69
2021/03/26 01:56:13;;;;;;;8.40;1.67;;;24.80;97.10;;;;;;5072327;28;20179;-71
2021/03/26 01:58:41;;;;;;;11.40;1.87;;;24.80;96.70;;;;;;5072426;28;20240;-68
2021/03/26 02:01:21;;;;;;;6.73;1.37;;;24.60;97.10;;;;;;5069147;28;20641;-70
2021/03/26 02:03:52;;;;;;;11.60;1.70;;;24.40;96.90;;;;;;5070743;28;20224;-68
2021/03/26 02:06:25;;;;;;;16.27;3.03;;;24.30;97.60;;;;;;5072431;28;20443;-69
2021/03/26 02:09:00;;;;;;;7.37;1.63;;;24.70;97.80;;;;;;5071956;28;20629;-69
2021/03/26 02:11:50;;;;;;;6.43;1.50;;;25.00;97.20;;;;;;5072674;28;20174;-71
2021/03/26 02:17:40;;;;;;;6.13;1.80;;;25.00;98.00;;;;;;5072349;28;20186;-70
2021/03/26 02:20:19;;;;;;;9.17;1.57;;;24.70;98.40;;;;;;5071362;28;20182;-72
2021/03/26 02:22:46;;;;;;;8.80;1.80;;;24.30;99.10;;;;;;5052015;28;20168;-71
2021/03/26 02:25:19;;;;;;;9.63;1.70;;;24.20;99.90;;;;;;5068420;28;20179;-71
2021/03/26 02:27:47;;;;;;;10.00;1.40;;;24.40;99.30;;;;;;5072135;28;20657;-71
2021/03/26 02:30:22;;;;;;;14.07;2.07;;;25.00;98.90;;;;;;5072131;28;20543;-72
2021/03/26 02:32:49;;;;;;;9.17;2.00;;;25.20;98.40;;;;;;5072110;28;20649;-71
2021/03/26 02:35:37;;;;;;;4.73;1.60;;;25.40;97.70;;;;;;5072013;28;20257;-69
2021/03/26 02:38:19;;;;;;;8.67;1.77;;;25.90;97.10;;;;;;5071472;28;20731;-69
2021/03/26 02:40:52;;;;;;;5.57;1.77;;;26.10;96.00;;;;;;5071854;28;20194;-68
2021/03/26 02:43:40;;;;;;;8.20;1.77;;;26.50;96.30;;;;;;5072122;28;20228;-69
2021/03/26 02:46:38;;;;;;;6.50;1.43;;;27.00;95.30;;;;;;5072097;28;20175;-69
2021/03/26 02:49:34;;;;;;;6.50;1.70;;;25.80;96.30;;;;;;5069394;28;20263;-69
2021/03/26 02:52:10;;;;;;;7.87;1.97;;;25.20;97.70;;;;;;5068409;28;20183;-68
2021/03/26 02:54:45;;;;;;;6.83;1.50;;;24.90;98.70;;;;;;5071846;28;20179;-71
2021/03/26 02:57:35;;;;;;;7.70;1.70;;;24.40;99.40;;;;;;5072268;28;20545;-71
2021/03/26 03:00:05;;;;;;;7.50;1.50;;;24.20;99.90;;;;;;5072245;28;20198;-72
2021/03/26 03:02:33;;;;;;;8.00;1.60;;;23.90;99.90;;;;;;5071980;28;20270;-72
2021/03/26 03:05:20;;;;;;;9.03;1.73;;;23.80;99.90;;;;;;5070517;28;20199;-68
2021/03/26 03:08:06;;;;;;;7.00;1.37;;;23.90;99.90;;;;;;5071838;28;20262;-71
2021/03/26 03:10:34;;;;;;;3.40;1.07;;;23.90;99.90;;;;;;5070595;28;20509;-71
2021/03/26 03:13:19;;;;;;;7.27;1.80;;;23.60;99.90;;;;;;5072957;28;20175;-69
2021/03/26 03:15:56;;;;;;;8.00;1.47;;;23.70;99.90;;;;;;5076052;28;20232;-69
2021/03/26 03:18:29;;;;;;;10.37;1.73;;;24.50;99.90;;;;;;5075709;28;20207;-69
2021/03/26 03:21:03;;;;;;;7.87;1.20;;;25.50;99.30;;;;;;5074412;28;20230;-72
2021/03/26 03:23:43;;;;;;;5.67;1.30;;;26.10;97.60;;;;;;5074863;28;20170;-72
2021/03/26 03:26:25;;;;;;;9.20;1.43;;;26.50;96.20;;;;;;5064661;28;20184;-70
2021/03/26 03:29:02;;;;;;;6.33;1.30;;;26.10;96.60;;;;;;5066935;28;20317;-69
2021/03/26 03:31:35;;;;;;;3.90;1.10;;;26.80;95.60;;;;;;5075712;28;20175;-70
2021/03/26 03:34:14;;;;;;;4.60;1.30;;;26.70;96.00;;;;;;5075486;28;20224;-72
2021/03/26 03:36:41;;;;;;;5.87;1.63;;;26.50;95.70;;;;;;5074086;28;20187;-70
2021/03/26 03:39:30;;;;;;;13.73;1.70;;;26.40;96.30;;;;;;5075029;28;20623;-72
2021/03/26 03:42:14;;;;;;;6.13;1.20;;;26.40;97.20;;;;;;5075727;28;20191;-72
2021/03/26 03:44:47;;;;;;;11.10;2.20;;;27.20;95.70;;;;;;5075557;28;20629;-70
2021/03/26 03:47:27;;;;;;;5.67;1.67;;;27.30;95.80;;;;;;5075939;28;20263;-68
2021/03/26 03:50:20;;;;;;;7.23;1.30;;;27.70;95.20;;;;;;5076024;28;20221;-70
2021/03/26 03:52:56;;;;;;;6.57;1.40;;;27.30;94.80;;;;;;5072723;28;20256;-70
2021/03/26 03:55:40;;;;;;;6.83;1.73;;;26.40;96.00;;;;;;5075038;28;20175;-70
2021/03/26 03:58:31;;;;;;;6.33;1.10;;;26.20;96.40;;;;;;5071987;28;20225;-70
2021/03/26 04:01:36;;;;;;;2.87;1.00;;;27.00;95.40;;;;;;5063320;28;20187;-71
2021/03/26 04:04:24;;;;;;;4.37;1.07;;;26.90;94.90;;;;;;4988556;28;20215;-68
2021/03/26 04:07:12;;;;;;;12.77;1.67;;;27.10;94.90;;;;;;5055863;28;20199;-71
2021/03/26 04:09:47;;;;;;;6.63;1.30;;;27.70;94.50;;;;;;5072883;28;20190;-73
2021/03/26 04:12:22;;;;;;;3.30;1.10;;;27.30;94.10;;;;;;5073712;28;20573;-68
2021/03/26 04:14:59;;;;;;;4.33;1.00;;;26.90;95.10;;;;;;5072986;28;20265;-68
2021/03/26 04:17:36;;;;;;;4.53;0.93;;;26.80;94.40;;;;;;5075142;28;20648;-70
2021/03/26 04:20:09;;;;;;;3.97;1.03;;;26.70;94.90;;;;;;5073636;28;20195;-70
2021/03/26 04:22:45;;;;;;;4.03;0.80;;;26.70;95.30;;;;;;5074495;28;20262;-68
2021/03/26 04:25:25;;;;;;;5.53;0.90;;;27.10;94.40;;;;;;5074734;28;20189;-70
2021/03/26 04:28:07;;;;;;;4.00;0.83;;;26.60;94.50;;;;;;5073732;28;20233;-71
2021/03/26 04:30:52;;;;;;;7.23;1.10;;;27.20;94.20;;;;;;5074914;28;20572;-70
2021/03/26 04:33:20;;;;;;;4.80;1.30;;;27.90;93.90;;;;;;5074639;28;20191;-70
2021/03/26 04:35:50;;;;;;;4.13;1.10;;;28.30;92.10;;;;;;5074140;28;20240;-69
2021/03/26 04:38:24;;;;;;;5.17;1.20;;;28.20;92.20;;;;;;5074434;28;20633;-70
2021/03/26 04:41:22;;;;;;;5.40;1.40;;;28.60;92.00;;;;;;5074021;28;20179;-69
2021/03/26 04:44:14;;;;;;;4.53;1.27;;;28.10;92.70;;;;;;5059315;28;20191;-68
2021/03/26 04:47:01;;;;;;;3.90;0.90;;;27.60;93.50;;;;;;5069404;28;20187;-70
2021/03/26 04:49:37;;;;;;;2.20;0.97;;;28.80;91.90;;;;;;5069361;28;20179;-70
2021/03/26 04:52:17;;;;;;;6.63;1.90;;;28.80;91.20;;;;;;5053283;28;20262;-69
2021/03/26 04:54:48;;;;;;;8.93;1.20;;;28.30;92.30;;;;;;5070317;28;20215;-69
2021/03/26 04:57:32;;;;;;;6.73;1.20;;;27.10;93.50;;;;;;5073995;28;20576;-68
2021/03/26 05:00:15;;;;;;;4.03;1.00;;;27.00;93.30;;;;;;5072966;28;20278;-69
2021/03/26 05:03:05;;;;;;;7.87;1.40;;;27.70;93.00;;;;;;5071795;28;20175;-70
2021/03/26 05:05:37;;;;;;;5.30;1.27;;;28.40;92.00;;;;;;5075176;28;20175;-70
2021/03/26 05:08:07;;;;;;;6.00;1.27;;;28.40;91.90;;;;;;5087371;28;20194;-70
2021/03/26 05:10:37;;;;;;;8.40;1.40;;;29.20;90.80;;;;;;5072549;28;20269;-70
2021/03/26 05:13:19;;;;;;;6.43;1.23;;;27.90;91.40;;;;;;5073113;28;20214;-69
2021/03/26 05:15:59;;;;;;;5.53;1.20;;;26.40;93.10;;;;;;5089178;28;20224;-70
2021/03/26 05:19:15;;;;;;;4.67;1.13;;;25.50;95.00;;;;;;5076570;28;20214;-70
2021/03/26 05:22:08;;;;;;;3.57;1.30;;;26.40;94.40;;;;;;4998856;28;20170;-69
2021/03/26 05:24:41;;;;;;;4.33;1.17;;;27.30;92.80;;;;;;4992331;28;20197;-70
2021/03/26 05:27:11;;;;;;;5.20;1.50;;;27.60;92.60;;;;;;5046648;28;20183;-71
2021/03/26 05:29:40;;;;;;;4.70;1.30;;;27.70;92.00;;;;;;5061919;28;20183;-71
2021/03/26 05:32:13;;;;;;;6.20;1.70;;;27.90;92.30;;;;;;5073087;28;20171;-69
2021/03/26 05:35:18;;;;;;;5.00;1.50;;;27.40;92.30;;;;;;5071696;28;20270;-69
2021/03/26 05:38:08;;;;;;;6.40;1.33;;;28.60;91.50;;;;;;5072881;28;20281;-69
2021/03/26 05:40:57;;;;;;;9.63;1.52;;;27.80;91.50;;;;;;5070985;28;20187;-70
2021/03/26 05:43:32;;;;;;;4.33;1.40;;;27.30;91.90;;;;;;5071052;28;20298;-70
2021/03/26 05:46:36;;;;;;;9.40;1.43;;;26.80;93.30;;;;;;5069151;28;20171;-71
2021/03/26 05:49:45;;;;;;;6.67;1.50;;;26.90;93.30;;;;;;5068917;28;20189;-71
2021/03/26 05:52:37;;;;;;;4.60;1.03;;;27.40;92.40;;;;;;5058296;28;20187;-70
2021/03/26 05:55:30;;;;;;;5.03;1.23;;;27.30;92.90;;;;;;5072270;28;20217;-70
2021/03/26 05:58:09;;;;;;;7.73;1.77;;;27.70;92.30;;;;;;5065969;28;20704;-70
2021/03/26 06:00:43;;;;;;;8.87;1.27;;;27.10;93.40;;;;;;5075325;28;20174;-70
2021/03/26 06:03:37;;;;;;;8.30;1.47;;;27.70;93.00;;;;;;5079861;28;20174;-70
2021/03/26 06:06:41;;;;;;;6.10;1.17;;;27.50;93.20;;;;;;5086526;28;20652;-71
2021/03/26 06:09:20;;;;;;;4.83;1.10;;;27.00;93.60;;;;;;5060895;28;20217;-70
2021/03/26 06:11:59;;;;;;;6.07;1.50;;;26.50;94.20;;;;;;5071974;28;20187;-69
2021/03/26 06:14:52;;;;;;;8.23;1.90;;;26.90;93.60;;;;;;5072382;28;20586;-67
2021/03/26 06:17:32;;;;;;;6.37;1.60;;;26.90;94.10;;;;;;5068300;28;20191;-67
2021/03/26 06:20:21;;;;;;;6.80;1.27;;;26.50;94.10;;;;;;5065302;28;20688;-67
2021/03/26 06:23:00;;;;;;;7.20;1.37;;;26.80;94.90;;;;;;5062265;28;20708;-66
2021/03/26 06:26:00;;;;;;;5.60;1.47;;;26.50;94.60;;;;;;5062965;28;20182;-68
2021/03/26 06:28:43;;;;;;;3.70;1.40;;;26.40;94.90;;;;;;5061490;28;20239;-67
2021/03/26 06:31:44;;;;;;;9.43;1.53;;;26.80;94.40;;;;;;5070709;28;20179;-67
2021/03/26 06:34:48;;;;;;;6.30;1.40;;;26.90;94.20;;;;;;5038353;28;20194;-67
2021/03/26 06:37:51;;;;;;;3.00;0.97;;;26.00;94.70;;;;;;5071221;28;20202;-68
2021/03/26 06:40:42;;;;;;;5.53;1.47;;;25.20;95.80;;;;;;5069787;28;20193;-68
2021/03/26 06:43:27;;;;;;;4.97;1.30;;;24.80;96.80;;;;;;5062532;28;20167;-68
2021/03/26 06:46:25;;;;;;;6.60;1.60;;;24.80;97.00;;;;;;5067607;28;20179;-68
2021/03/26 06:49:37;;;;;;;6.37;1.70;;;25.10;97.20;;;;;;5066296;28;20183;-70
2021/03/26 06:52:15;;;;;;;4.67;1.40;;;24.70;97.10;;;;;;5040650;28;20286;-70
2021/03/26 06:55:14;;;;;;;4.87;1.13;;;24.40;97.80;;;;;;5070722;28;20221;-69
2021/03/26 06:58:14;;;;;;;7.50;1.17;;;25.10;96.90;;;;;;5064493;28;20594;-67
2021/03/26 07:00:54;;;;;;;6.80;1.80;;;25.40;96.10;;;;;;5067222;28;20202;-70
2021/03/26 07:03:38;;;;;;;8.70;1.53;;;25.40;95.80;;;;;;5059700;28;20535;-71
2021/03/26 07:06:20;;;;;;;5.63;1.20;;;26.00;95.00;;;;;;5066761;28;20183;-70
2021/03/26 07:09:04;;;;;;;5.87;1.63;;;25.80;95.30;;;;;;5074626;28;20544;-70
2021/03/26 07:11:50;;;;;;;6.70;1.37;;;25.00;96.40;;;;;;5074725;28;20229;-69
2021/03/26 07:14:55;;;;;;;4.93;1.57;;;24.40;97.10;;;;;;5069352;28;20645;-69
2021/03/26 07:17:49;;;;;;;4.77;1.73;;;24.50;97.50;;;;;;5064763;28;20200;-70
2021/03/26 07:20:35;;;;;;;8.53;2.77;;;24.50;97.40;;;;;;5068481;28;20180;-70
2021/03/26 07:23:38;;;;;;;9.10;2.03;;;24.60;97.50;;;;;;5070142;28;20180;-70
2021/03/26 07:26:18;;;;;;;9.57;2.10;;;24.40;97.90;;;;;;5067869;28;20202;-69
2021/03/26 07:28:58;;;;;;;17.67;11.67;;;24.00;98.60;;;;;;5054995;28;20303;-68
2021/03/26 07:31:25;;;;;;;10.37;3.80;;;23.80;99.30;;;;;;5069320;28;20241;-71
2021/03/26 07:34:10;;;;;;;5.90;2.27;;;23.40;99.90;;;;;;5073795;28;20183;-71
2021/03/26 07:37:03;;;;;;;9.10;1.83;;;23.40;99.90;;;;;;5070218;28;20191;-71
2021/03/26 07:39:50;;;;;;;7.10;1.83;;;23.10;99.90;;;;;;5046666;28;20234;-71
2021/03/26 07:42:40;;;;;;;12.30;2.30;;;23.00;99.90;;;;;;5074784;28;20316;-71
2021/03/26 07:45:43;;;;;;;13.70;2.87;;;22.90;99.90;;;;;;5074554;28;20183;-71
2021/03/26 07:48:33;;;;;;;12.10;2.73;;;22.70;99.90;;;;;;5074764;28;20187;-70
2021/03/26 07:51:13;;;;;;;9.97;2.37;;;22.50;99.90;;;;;;5062146;28;20182;-70
2021/03/26 07:53:43;;;;;;;10.63;2.47;;;22.20;99.90;;;;;;5074116;28;20205;-70
2021/03/26 07:56:54;;;;;;;14.20;2.70;;;22.10;99.90;;;;;;5073882;28;20269;-69
2021/03/26 07:59:53;;;;;;;6.90;2.00;;;21.90;99.90;;;;;;5060628;28;20582;-71
2021/03/26 08:02:36;;;;;;;9.70;2.50;;;21.90;99.90;;;;;;5049594;28;20195;-70
2021/03/26 08:05:29;;;;;;;12.53;2.80;;;21.80;99.90;;;;;;5070610;28;20249;-70
2021/03/26 08:07:59;;;;;;;9.87;2.23;;;21.80;99.90;;;;;;5073760;28;20178;-69
2021/03/26 08:10:50;;;;;;;13.70;2.70;;;21.70;99.90;;;;;;5073186;28;20258;-69
2021/03/26 08:13:29;;;;;;;15.03;2.93;;;21.70;99.90;;;;;;5059742;28;20263;-68
2021/03/26 08:16:37;;;;;;;12.47;3.10;;;21.60;99.90;;;;;;5069871;28;20191;-70
2021/03/26 08:19:30;;;;;;;9.77;2.30;;;21.60;99.90;;;;;;5072192;28;20226;-70
2021/03/26 08:22:22;;;;;;;12.73;3.13;;;21.50;99.90;;;;;;5072963;28;20240;-72
2021/03/26 08:25:20;;;;;;;15.23;3.17;;;21.50;99.90;;;;;;5061596;28;20180;-73
2021/03/26 08:28:07;;;;;;;11.23;2.60;;;21.40;99.90;;;;;;5073852;28;20226;-71
2021/03/26 08:30:45;;;;;;;9.63;2.23;;;21.40;99.90;;;;;;5050739;28;20533;-72
2021/03/26 08:33:22;;;;;;;16.60;3.50;;;21.40;99.90;;;;;;5065775;28;20230;-72
2021/03/26 08:36:39;;;;;;;9.73;2.80;;;21.30;99.90;;;;;;5074635;28;20183;-72
2021/03/26 08:39:26;;;;;;;12.77;2.97;;;21.30;99.90;;;;;;4993295;28;20222;-71
2021/03/26 08:42:22;;;;;;;11.57;3.50;;;21.30;99.90;;;;;;4993605;28;20201;-71
2021/03/26 08:45:17;;;;;;;12.00;2.77;;;21.30;99.90;;;;;;5051715;28;20206;-71
2021/03/26 08:47:59;;;;;;;10.60;2.63;;;21.20;99.90;;;;;;5073936;28;20274;-71
2021/03/26 08:51:01;;;;;;;9.87;2.70;;;21.10;99.90;;;;;;5072969;28;20548;-71
2021/03/26 08:53:54;;;;;;;8.40;2.17;;;21.20;99.90;;;;;;5073401;28;20190;-70
2021/03/26 08:56:58;;;;;;;13.20;2.43;;;21.20;99.90;;;;;;5068928;28;20187;-71
2021/03/26 08:59:47;;;;;;;7.83;2.33;;;21.20;99.90;;;;;;5068521;28;20207;-70
2021/03/26 09:02:42;;;;;;;9.17;3.00;;;21.10;99.90;;;;;;5063820;28;20541;-71
2021/03/26 09:05:28;;;;;;;10.23;2.40;;;21.00;99.90;;;;;;5073148;28;20221;-72
2021/03/26 09:08:27;;;;;;;14.30;2.40;;;21.00;99.90;;;;;;5072883;28;20503;-70
2021/03/26 09:11:31;;;;;;;8.10;2.40;;;21.00;99.90;;;;;;5070140;28;20190;-71
2021/03/26 09:14:27;;;;;;;12.53;2.97;;;21.00;99.90;;;;;;5061612;28;20187;-70
2021/03/26 09:17:04;;;;;;;15.17;4.17;;;21.00;99.90;;;;;;5065696;28;20205;-72
2021/03/26 09:19:42;;;;;;;10.70;4.10;;;21.10;99.90;;;;;;5072455;28;20254;-72
2021/03/26 09:32:26;;;;;;;12.27;2.07;;;21.10;99.90;;;;;;5071674;28;20187;-72
2021/03/26 09:35:30;;;;;;;9.00;1.97;;;21.10;99.90;;;;;;5064267;28;20262;-72
2021/03/26 09:38:03;;;;;;;7.53;1.80;;;21.10;99.90;;;;;;5028774;28;20286;-71
2021/03/26 09:40:39;;;;;;;9.80;1.67;;;21.20;99.90;;;;;;5067492;28;20191;-71
2021/03/26 09:43:19;;;;;;;9.90;2.30;;;21.20;99.90;;;;;;5069800;28;20583;-71
2021/03/26 09:46:17;;;;;;;8.27;1.80;;;21.20;99.90;;;;;;5071166;28;20178;-72
2021/03/26 09:49:15;;;;;;;8.40;1.90;;;21.20;99.90;;;;;;5072071;28;20193;-69
2021/03/26 09:51:47;;;;;;;9.93;2.00;;;21.20;99.90;;;;;;5066652;28;20194;-70
2021/03/26 09:54:24;;;;;;;7.37;1.60;;;21.10;99.90;;;;;;5073558;28;20186;-70
2021/03/26 09:57:27;;;;;;;7.30;1.57;;;21.10;99.90;;;;;;5071739;28;20182;-68
2021/03/26 10:00:04;;;;;;;11.30;2.13;;;21.10;99.90;;;;;;5071243;28;20586;-69
2021/03/26 10:02:44;;;;;;;6.27;1.43;;;21.00;99.90;;;;;;5074109;28;20206;-70
2021/03/26 10:05:35;;;;;;;9.20;2.10;;;21.00;99.90;;;;;;5068946;28;20247;-69
2021/03/26 10:11:28;;;;;;;11.03;2.20;;;21.00;99.90;;;;;;5072754;28;20183;-70
2021/03/26 10:14:03;;;;;;;8.77;2.20;;;20.90;99.90;;;;;;5072164;28;20181;-70
2021/03/26 10:16:58;;;;;;;10.10;1.93;;;21.00;99.90;;;;;;5073184;28;20633;-71
2021/03/26 10:20:13;;;;;;;6.57;1.57;;;20.90;99.90;;;;;;5071422;28;20225;-71
2021/03/26 10:23:10;;;;;;;8.03;1.47;;;20.90;99.90;;;;;;5011411;28;20177;-71
2021/03/26 10:25:44;;;;;;;7.17;1.93;;;20.90;99.90;;;;;;5011626;28;20184;-72
2021/03/26 10:28:35;;;;;;;9.47;1.80;;;20.90;99.90;;;;;;5053607;28;20241;-70
2021/03/26 10:31:10;;;;;;;11.03;2.17;;;20.90;99.90;;;;;;5072686;28;20588;-71
2021/03/26 10:33:48;;;;;;;4.87;1.80;;;20.90;99.90;;;;;;5073427;28;20623;-69
2021/03/26 10:36:31;;;;;;;9.17;1.80;;;20.90;99.90;;;;;;5072473;28;20178;-70
2021/03/26 10:39:44;;;;;;;7.30;2.00;;;20.90;99.90;;;;;;5072191;28;20201;-71
2021/03/26 10:42:34;;;;;;;8.43;1.70;;;20.90;99.90;;;;;;4989770;28;20260;-71
2021/03/26 10:45:20;;;;;;;6.47;1.47;;;20.90;99.90;;;;;;5076856;28;20625;-70
2021/03/26 10:48:08;;;;;;;9.70;1.93;;;20.80;99.90;;;;;;5071786;28;20266;-71
2021/03/26 10:50:45;;;;;;;7.97;1.93;;;20.80;99.90;;;;;;5067977;28;20490;-71
2021/03/26 10:53:22;;;;;;;7.43;2.10;;;20.80;99.90;;;;;;5070244;28;20185;-71
2021/03/26 10:56:32;;;;;;;10.47;2.07;;;20.70;99.90;;;;;;5060624;28;20179;-71
2021/03/26 10:59:07;;;;;;;10.43;1.73;;;20.70;99.90;;;;;;5071559;28;20199;-69
2021/03/26 11:01:42;;;;;;;7.67;1.53;;;20.60;99.90;;;;;;5071953;28;20186;-71
2021/03/26 11:04:40;;;;;;;9.73;2.30;;;20.50;99.90;;;;;;5070471;28;20658;-71
2021/03/26 11:07:16;;;;;;;5.03;1.67;;;20.40;99.90;;;;;;5070777;28;20175;-71
2021/03/26 11:09:50;;;;;;;12.30;2.17;;;20.30;99.90;;;;;;5072017;28;20202;-72
2021/03/26 11:12:32;;;;;;;8.60;1.97;;;20.30;99.90;;;;;;5068779;28;20179;-70
2021/03/26 11:15:02;;;;;;;11.47;2.33;;;20.30;99.90;;;;;;5061774;28;20515;-71
2021/03/26 11:17:49;;;;;;;10.53;2.43;;;20.20;99.90;;;;;;5071372;28;20187;-71
2021/03/26 11:20:34;;;;;;;9.37;2.67;;;20.10;99.90;;;;;;5062840;28;20566;-71
2021/03/26 11:23:24;;;;;;;10.90;2.43;;;20.10;99.90;;;;;;5057781;28;20278;-70
2021/03/26 11:26:06;;;;;;;13.90;2.40;;;20.10;99.90;;;;;;5059949;28;20195;-71
2021/03/26 11:28:54;;;;;;;10.70;2.63;;;20.00;99.90;;;;;;5067102;28;20215;-71
2021/03/26 11:31:31;;;;;;;15.73;3.17;;;20.00;99.90;;;;;;5063510;28;20548;-70
2021/03/26 11:34:37;;;;;;;8.63;2.80;;;20.00;99.90;;;;;;5071509;28;20633;-72
2021/03/26 11:37:16;;;;;;;9.00;2.40;;;20.00;99.90;;;;;;5067334;28;20191;-71
2021/03/26 11:39:52;;;;;;;8.80;2.67;;;20.00;99.90;;;;;;5075529;28;20727;-71
2021/03/26 11:42:40;;;;;;;11.77;3.13;;;20.00;99.90;;;;;;5075285;28;20232;-71
2021/03/26 11:45:32;;;;;;;5.83;2.23;;;19.90;99.90;;;;;;5075305;28;20179;-71
2021/03/26 11:48:05;;;;;;;10.33;2.70;;;19.80;99.90;;;;;;5075473;28;20646;-69
2021/03/26 11:50:36;;;;;;;10.27;3.10;;;19.70;99.90;;;;;;5072889;28;20555;-68
2021/03/26 11:53:04;;;;;;;10.87;3.27;;;19.70;99.90;;;;;;5075223;28;20180;-71
2021/03/26 11:55:42;;;;;;;9.87;2.40;;;19.70;99.90;;;;;;5074625;28;20253;-72
2021/03/26 11:58:43;;;;;;;10.87;3.10;;;19.80;99.90;;;;;;5074829;28;22481;-69
2021/03/26 12:01:11;;;;;;;10.70;2.80;;;19.70;99.90;;;;;;5063744;28;20265;-71
2021/03/26 12:04:07;;;;;;;9.43;3.40;;;19.70;99.90;;;;;;5074819;28;20240;-72
2021/03/26 12:06:45;;;;;;;11.20;2.83;;;19.70;99.90;;;;;;5073109;28;20232;-72
2021/03/26 12:09:35;;;;;;;6.83;2.73;;;19.60;99.90;;;;;;5074766;28;20183;-71
2021/03/26 12:12:15;;;;;;;13.53;3.63;;;19.60;99.90;;;;;;5068066;28;20623;-70
2021/03/26 12:15:07;;;;;;;14.33;2.80;;;19.60;99.90;;;;;;5074430;28;20171;-70
2021/03/26 12:17:37;;;;;;;8.80;2.63;;;19.60;99.90;;;;;;5073849;28;20179;-71
2021/03/26 12:20:08;;;;;;;8.87;2.57;;;19.50;99.90;;;;;;5072776;28;20681;-70
2021/03/26 12:22:48;;;;;;;10.57;2.40;;;19.50;99.90;;;;;;5073356;28;20605;-72
2021/03/26 12:25:34;;;;;;;11.20;2.57;;;19.50;99.90;;;;;;5074605;28;20267;-71
2021/03/26 12:28:18;;;;;;;10.13;2.60;;;19.50;99.90;;;;;;5074014;28;20230;-71
2021/03/26 12:31:11;;;;;;;11.93;2.37;;;19.50;99.90;;;;;;5074095;28;20215;-69
2021/03/26 12:33:45;;;;;;;12.10;2.37;;;19.50;99.90;;;;;;5074112;28;20172;-71
2021/03/26 12:36:15;;;;;;;9.83;2.13;;;19.60;99.90;;;;;;5072871;28;20514;-71
2021/03/26 12:39:02;;;;;;;9.10;1.97;;;19.60;99.90;;;;;;5074058;28;20742;-72
2021/03/26 12:42:02;;;;;;;9.43;1.90;;;19.60;99.90;;;;;;5074265;28;20641;-72
2021/03/26 12:45:18;;;;;;;11.67;2.50;;;19.60;99.90;;;;;;5073738;28;20175;-72
2021/03/26 12:47:54;;;;;;;7.93;2.43;;;19.60;99.90;;;;;;5025251;28;20268;-72
2021/03/26 12:50:31;;;;;;;7.53;2.10;;;19.60;99.90;;;;;;5055200;28;20179;-68
2021/03/26 12:53:29;;;;;;;6.20;1.80;;;19.60;99.90;;;;;;5073304;28;20174;-71
2021/03/26 12:56:15;;;;;;;10.80;2.00;;;19.60;99.90;;;;;;5053038;28;20191;-71
2021/03/26 12:58:45;;;;;;;5.20;1.80;;;19.60;99.90;;;;;;5073304;28;20203;-72
2021/03/26 13:01:27;;;;;;;6.27;1.87;;;19.60;99.90;;;;;;5073976;28;20645;-70
2021/03/26 13:04:21;;;;;;;7.60;1.70;;;19.70;99.90;;;;;;5072240;28;20179;-72
2021/03/26 13:06:51;;;;;;;3.73;1.70;;;19.70;99.90;;;;;;5073694;28;20175;-71
2021/03/26 13:09:51;;;;;;;9.73;2.27;;;19.70;99.90;;;;;;5072615;28;20685;-68
2021/03/26 13:12:26;;;;;;;8.30;2.00;;;19.70;99.90;;;;;;5073655;28;20684;-70
2021/03/26 13:15:17;;;;;;;14.57;2.27;;;19.70;99.90;;;;;;5072834;28;20182;-71
2021/03/26 13:17:45;;;;;;;12.50;2.23;;;19.70;99.90;;;;;;5072056;28;20195;-70
2021/03/26 13:20:16;;;;;;;10.20;2.07;;;19.70;99.90;;;;;;5072841;28;20215;-70
2021/03/26 13:22:52;;;;;;;8.13;2.60;;;19.70;99.90;;;;;;5074111;28;20179;-69
2021/03/26 13:25:33;;;;;;;11.90;2.23;;;19.70;99.90;;;;;;5071591;28;20262;-70
2021/03/26 13:28:09;;;;;;;10.13;2.50;;;19.70;99.90;;;;;;5056891;28;20229;-70
2021/03/26 13:30:52;;;;;;;13.10;2.53;;;19.80;99.90;;;;;;5073249;28;20191;-67
2021/03/26 13:33:39;;;;;;;11.97;2.60;;;19.80;99.90;;;;;;5065094;28;20206;-71
2021/03/26 13:36:28;;;;;;;6.87;1.70;;;19.80;99.90;;;;;;5070383;28;20186;-69
2021/03/26 13:39:15;;;;;;;14.23;2.50;;;19.80;99.90;;;;;;5062741;28;20238;-69
2021/03/26 13:42:00;;;;;;;7.97;1.73;;;19.70;99.90;;;;;;5064352;28;20191;-69
2021/03/26 13:44:52;;;;;;;13.90;2.60;;;19.70;99.90;;;;;;5073932;28;20194;-72
2021/03/26 13:47:44;;;;;;;12.27;2.40;;;19.70;99.90;;;;;;5074186;28;20562;-70
2021/03/26 13:50:18;;;;;;;12.10;2.37;;;19.70;99.90;;;;;;5048279;28;20595;-69
2021/03/26 13:52:59;;;;;;;12.87;2.67;;;19.60;99.90;;;;;;5072836;28;20222;-70
2021/03/26 13:56:03;;;;;;;9.47;3.23;;;19.60;99.90;;;;;;5072421;28;20282;-70
2021/03/26 13:58:46;;;;;;;11.07;2.67;;;19.50;99.90;;;;;;5062229;28;20218;-70
2021/03/26 14:01:32;;;;;;;13.50;2.60;;;19.60;99.90;;;;;;5074020;28;20275;-70
2021/03/26 14:04:23;;;;;;;12.53;2.53;;;19.50;99.90;;;;;;5073909;28;20569;-71
2021/03/26 14:07:01;;;;;;;10.37;2.27;;;19.50;99.90;;;;;;5065432;28;20175;-69
2021/03/26 14:09:44;;;;;;;8.83;2.17;;;19.50;99.90;;;;;;5054827;28;20550;-69
2021/03/26 14:12:21;;;;;;;16.90;2.77;;;19.50;99.90;;;;;;5072792;28;20214;-68
2021/03/26 14:15:02;;;;;;;12.33;2.57;;;19.40;99.90;;;;;;5072629;28;20184;-68
2021/03/26 14:17:42;;;;;;;9.33;2.10;;;19.40;99.90;;;;;;5072954;28;20604;-68